Time;durP1;ratioP1;P1;durP2;ratioP2;P2;SDS_P1;SDS_P2;PMS_P1;PMS_P2;Temp;Humidity;BMP_temperature;BMP_pressure;BME280_temperature;BME280_humidity;BME280_pressure;Samples;Min_cycle;Max_cycle;Signal;HPM_P1;HPM_P2
2024/03/28 00:02:15;;;;;;;1173.80;958.20;;;;;;;20.94;38.22;98771.91;5124023;27;20040;-71
2024/03/28 00:04:40;;;;;;;1150.05;906.10;;;;;;;20.95;38.25;98768.22;5126323;27;20081;-71
2024/03/28 00:07:06;;;;;;;1218.53;999.90;;;;;;;20.91;38.49;98769.75;5126999;27;20038;-71
2024/03/28 00:09:31;;;;;;;1209.10;968.85;;;;;;;20.89;38.24;98758.59;5120478;27;21068;-72
2024/03/28 00:11:57;;;;;;;1213.13;986.33;;;;;;;20.89;38.44;98768.38;5125127;27;20081;-71
2024/03/28 00:14:22;;;;;;;1190.05;966.85;;;;;;;20.89;38.35;98777.09;5136700;27;20065;-71
2024/03/28 00:16:48;;;;;;;1046.45;821.88;;;;;;;20.85;38.53;98773.34;5130123;27;20035;-71
2024/03/28 00:19:14;;;;;;;1076.57;859.03;;;;;;;20.85;38.33;98768.03;5125892;27;20038;-71
2024/03/28 00:21:40;;;;;;;1072.60;856.15;;;;;;;20.81;38.58;98769.53;5125600;27;20035;-73
2024/03/28 00:24:06;;;;;;;1101.40;983.17;;;;;;;20.86;38.26;98758.25;5126087;27;20035;-72
2024/03/28 00:26:32;;;;;;;922.60;743.17;;;;;;;20.86;38.38;98751.13;5116723;27;20031;-71
2024/03/28 00:28:57;;;;;;;1113.47;999.00;;;;;;;20.80;38.36;98752.06;5101284;27;20035;-72
2024/03/28 00:31:23;;;;;;;797.63;677.60;;;;;;;20.79;38.48;98748.59;5127493;27;20546;-71
2024/03/28 00:33:48;;;;;;;834.25;694.70;;;;;;;20.82;38.57;98747.31;5122835;27;20046;-71
2024/03/28 00:36:14;;;;;;;703.50;482.60;;;;;;;20.84;38.46;98750.56;5109877;27;20035;-71
2024/03/28 00:38:39;;;;;;;876.25;698.45;;;;;;;20.81;38.56;98759.75;5128579;27;20039;-71
2024/03/28 00:41:05;;;;;;;905.70;738.72;;;;;;;20.78;38.58;98754.13;5122014;27;20066;-72
2024/03/28 00:43:31;;;;;;;885.75;738.97;;;;;;;20.80;38.35;98749.41;5126449;27;20039;-71
2024/03/28 00:45:59;;;;;;;859.47;696.17;;;;;;;20.78;38.53;98747.00;5125790;27;20054;-71
2024/03/28 00:48:24;;;;;;;788.42;610.50;;;;;;;20.77;38.54;98741.94;5119710;27;20047;-71
2024/03/28 00:50:54;;;;;;;828.60;658.88;;;;;;;20.75;38.50;98734.25;5124138;27;20371;-71
2024/03/28 00:53:20;;;;;;;;;;;;;;;20.81;38.32;98735.16;5122776;27;20049;-72
2024/03/28 00:55:46;;;;;;;856.88;694.50;;;;;;;20.78;38.33;98743.56;5124742;27;19923;-72
2024/03/28 00:58:12;;;;;;;810.10;590.10;;;;;;;20.76;38.39;98729.78;5130523;27;20042;-71
2024/03/28 01:00:38;;;;;;;840.90;638.72;;;;;;;20.71;38.72;98727.03;5131815;27;20031;-73
2024/03/28 01:03:04;;;;;;;815.80;605.83;;;;;;;20.66;38.73;98735.69;5125963;27;20038;-71
2024/03/28 01:05:29;;;;;;;829.67;611.63;;;;;;;20.72;38.59;98732.09;5124418;27;20070;-71
2024/03/28 01:07:55;;;;;;;851.80;630.90;;;;;;;20.73;38.61;98731.03;5120581;27;20490;-72
2024/03/28 01:10:20;;;;;;;829.25;607.90;;;;;;;20.74;38.24;98715.97;5105966;27;20035;-71
2024/03/28 01:12:46;;;;;;;798.75;584.55;;;;;;;20.68;38.36;98715.09;5126401;27;20045;-71
2024/03/28 01:15:11;;;;;;;756.70;545.97;;;;;;;20.70;38.68;98714.84;5125077;27;20083;-71
2024/03/28 01:17:37;;;;;;;703.50;498.63;;;;;;;20.72;38.29;98718.88;5124325;27;20051;-71
2024/03/28 01:20:03;;;;;;;683.60;487.10;;;;;;;20.70;38.50;98714.84;5127653;27;20039;-72
2024/03/28 01:22:28;;;;;;;692.08;496.75;;;;;;;20.68;38.35;98707.16;5131384;27;20058;-71
2024/03/28 01:24:54;;;;;;;722.63;523.72;;;;;;;20.67;38.43;98702.91;5124652;27;20039;-71
2024/03/28 01:27:19;;;;;;;697.53;497.00;;;;;;;20.68;38.52;98701.06;5122708;27;20034;-73
2024/03/28 01:29:45;;;;;;;703.10;502.30;;;;;;;20.65;38.56;98702.34;5128764;27;20035;-72
2024/03/28 01:32:10;;;;;;;683.95;487.83;;;;;;;20.60;38.62;98693.50;5128281;27;20073;-71
2024/03/28 01:34:36;;;;;;;677.80;471.33;;;;;;;20.71;38.50;98695.28;5126847;27;21104;-71
2024/03/28 01:37:01;;;;;;;665.20;460.40;;;;;;;20.65;38.46;98686.47;5128461;27;20027;-71
2024/03/28 01:39:27;;;;;;;686.53;473.60;;;;;;;20.65;38.45;98693.59;5128103;27;20410;-71
2024/03/28 01:41:53;;;;;;;703.45;486.67;;;;;;;20.69;38.42;98684.16;5124078;27;20051;-71
2024/03/28 01:44:23;;;;;;;732.83;510.00;;;;;;;20.67;38.48;98689.69;5133421;27;20045;-71
2024/03/28 01:46:52;;;;;;;760.47;524.95;;;;;;;20.63;38.39;98679.78;5116681;27;20091;-71
2024/03/28 01:49:18;;;;;;;994.85;693.13;;;;;;;20.62;38.55;98679.00;5122182;27;20051;-71
2024/03/28 01:51:44;;;;;;;1158.95;857.97;;;;;;;20.51;38.86;98672.72;5125260;27;20040;-72
2024/03/28 01:54:13;;;;;;;1158.60;882.25;;;;;;;20.62;38.59;98681.63;5129713;27;20042;-71
2024/03/28 01:56:39;;;;;;;1078.93;781.63;;;;;;;20.58;38.62;98682.34;5123797;27;20053;-71
2024/03/28 01:59:06;;;;;;;1072.60;802.63;;;;;;;20.59;38.60;98668.88;5127484;27;20471;-70
2024/03/28 02:01:33;;;;;;;1083.30;809.47;;;;;;;20.63;38.64;98671.84;5128342;27;20087;-71
2024/03/28 02:03:59;;;;;;;1064.65;806.75;;;;;;;20.61;38.43;98673.94;5109778;27;20031;-70
2024/03/28 02:06:25;;;;;;;1119.18;998.05;;;;;;;20.58;38.62;98654.06;5128582;27;20055;-71
2024/03/28 02:08:51;;;;;;;1192.22;999.90;;;;;;;20.59;38.53;98650.38;5106116;27;20131;-71
2024/03/28 02:11:18;;;;;;;1185.90;999.90;;;;;;;20.58;38.49;98650.63;5124301;27;20188;-71
2024/03/28 02:13:44;;;;;;;1199.55;999.90;;;;;;;20.53;38.51;98638.13;5135268;27;20039;-71
2024/03/28 02:16:09;;;;;;;1189.45;999.90;;;;;;;20.57;38.60;98636.59;5125452;27;20534;-71
2024/03/28 02:18:35;;;;;;;1207.28;999.90;;;;;;;20.58;38.56;98635.56;5131966;27;20063;-71
2024/03/28 02:21:00;;;;;;;1236.55;999.90;;;;;;;20.63;38.20;98642.78;5129739;27;20103;-71
2024/03/28 02:23:26;;;;;;;1214.65;999.90;;;;;;;20.52;38.60;98645.25;5137001;27;20041;-71
2024/03/28 02:25:51;;;;;;;1191.40;999.90;;;;;;;20.51;38.73;98632.28;5132502;27;20038;-70
2024/03/28 02:28:17;;;;;;;1167.93;999.90;;;;;;;20.44;38.72;98632.38;5131859;27;20368;-70
2024/03/28 02:30:44;;;;;;;1167.38;999.90;;;;;;;20.50;38.74;98634.09;5134855;27;20042;-70
2024/03/28 02:33:09;;;;;;;1173.50;999.90;;;;;;;20.54;38.55;98629.16;5126989;27;20138;-71
2024/03/28 02:35:35;;;;;;;1179.63;999.90;;;;;;;20.51;38.60;98634.91;5126553;27;20065;-70
2024/03/28 02:38:00;;;;;;;1148.88;999.90;;;;;;;20.50;38.62;98628.03;5130452;27;20038;-71
2024/03/28 02:40:26;;;;;;;1148.10;999.90;;;;;;;20.50;38.49;98628.81;5124485;27;20050;-71
2024/03/28 02:42:52;;;;;;;1173.30;999.90;;;;;;;20.46;38.64;98619.75;5131406;27;20035;-70
2024/03/28 02:45:18;;;;;;;1198.22;999.90;;;;;;;20.48;38.47;98628.25;5127909;27;20367;-71
2024/03/28 02:47:44;;;;;;;1181.63;989.95;;;;;;;20.44;38.77;98640.31;5124661;27;20043;-71
2024/03/28 02:50:09;;;;;;;1214.40;999.90;;;;;;;20.43;38.71;98644.00;5133122;27;20479;-70
2024/03/28 02:52:39;;;;;;;1236.95;999.90;;;;;;;20.41;38.51;98637.34;5125079;27;20046;-70
2024/03/28 02:55:05;;;;;;;1255.35;999.90;;;;;;;20.44;38.69;98639.53;5131220;27;20034;-70
2024/03/28 02:57:30;;;;;;;1253.80;999.90;;;;;;;20.48;38.46;98630.09;5122707;27;20043;-71
2024/03/28 02:59:56;;;;;;;1214.07;999.90;;;;;;;20.46;38.67;98618.94;5126768;27;20028;-70
2024/03/28 03:02:21;;;;;;;1213.55;999.90;;;;;;;20.47;38.75;98620.56;5101169;27;20038;-71
2024/03/28 03:04:47;;;;;;;1241.32;999.90;;;;;;;20.46;38.58;98630.31;5126504;27;20030;-70
2024/03/28 03:07:12;;;;;;;1249.60;999.90;;;;;;;20.43;38.64;98629.97;5121771;27;20054;-70
2024/03/28 03:09:38;;;;;;;1212.13;999.90;;;;;;;20.40;38.70;98633.06;5125313;27;20031;-71
2024/03/28 03:12:05;;;;;;;1214.78;999.90;;;;;;;20.39;38.78;98629.63;5128564;27;20752;-70
2024/03/28 03:14:30;;;;;;;1233.40;999.90;;;;;;;20.38;38.71;98620.09;5127668;27;20063;-71
2024/03/28 03:16:56;;;;;;;1226.93;999.90;;;;;;;20.36;38.81;98618.72;5125988;27;20043;-71
2024/03/28 03:19:22;;;;;;;1216.00;999.90;;;;;;;20.33;38.89;98627.13;5127686;27;20463;-71
2024/03/28 03:21:49;;;;;;;1230.30;999.90;;;;;;;20.38;38.71;98621.94;5128184;27;20043;-71
2024/03/28 03:24:15;;;;;;;1243.28;999.90;;;;;;;20.36;38.72;98613.44;5108848;27;20043;-71
2024/03/28 03:26:49;;;;;;;1253.25;999.90;;;;;;;20.39;38.79;98611.13;5107204;27;20043;-71
2024/03/28 03:34:51;;;;;;;1226.85;999.90;;;;;;;20.48;38.68;98604.47;5128839;27;20629;-71
2024/03/28 03:37:20;;;;;;;1213.78;999.90;;;;;;;20.51;38.52;98603.19;5119825;27;20054;-71
2024/03/28 03:39:45;;;;;;;1200.25;999.90;;;;;;;20.49;38.62;98608.72;5122970;27;20035;-70
2024/03/28 03:42:11;;;;;;;1185.68;999.90;;;;;;;20.53;38.45;98609.03;5125209;27;20045;-70
2024/03/28 03:44:37;;;;;;;1188.60;999.90;;;;;;;20.49;38.59;98600.78;5122376;27;20039;-70
2024/03/28 03:47:03;;;;;;;1182.25;999.90;;;;;;;20.52;38.51;98615.38;5124408;27;20067;-72
2024/03/28 03:49:28;;;;;;;1168.65;999.90;;;;;;;20.51;38.68;98611.13;5124996;27;20394;-71
2024/03/28 03:51:54;;;;;;;1178.45;999.90;;;;;;;20.50;38.74;98606.88;5126287;27;20046;-70
2024/03/28 03:54:19;;;;;;;1181.63;999.90;;;;;;;20.43;38.65;98606.19;5131192;27;20041;-71
2024/03/28 03:56:44;;;;;;;1179.47;999.90;;;;;;;20.44;38.57;98605.97;5126380;27;20042;-71
2024/03/28 03:59:10;;;;;;;1173.43;999.90;;;;;;;20.50;38.76;98604.22;5129945;27;20053;-71
2024/03/28 04:01:35;;;;;;;1165.40;999.90;;;;;;;20.43;38.65;98603.56;5127684;27;20121;-72
2024/03/28 04:04:02;;;;;;;1227.72;999.90;;;;;;;20.48;38.54;98595.72;5126187;27;20055;-72
2024/03/28 04:06:28;;;;;;;1230.78;999.90;;;;;;;20.44;38.49;98592.75;5130789;27;20049;-70
2024/03/28 04:08:53;;;;;;;1221.53;999.90;;;;;;;20.44;38.53;98591.94;5103566;27;20363;-70
2024/03/28 04:11:19;;;;;;;1204.35;999.90;;;;;;;20.43;38.78;98585.03;5124067;27;20130;-71
2024/03/28 04:13:44;;;;;;;1255.20;999.90;;;;;;;20.42;38.64;98586.09;5124116;27;20119;-71
2024/03/28 04:16:10;;;;;;;1245.35;999.90;;;;;;;20.41;38.74;98582.66;5121604;27;20188;-71
2024/03/28 04:18:35;;;;;;;1225.55;999.90;;;;;;;20.42;38.47;98563.09;5127694;27;20447;-71
2024/03/28 04:21:02;;;;;;;1225.72;999.90;;;;;;;20.39;38.70;98565.38;5124905;27;20092;-71
2024/03/28 04:23:28;;;;;;;1261.40;999.90;;;;;;;20.44;38.65;98558.38;5125963;27;20039;-71
2024/03/28 04:25:55;;;;;;;1194.68;999.90;;;;;;;20.42;38.69;98557.81;5121223;27;20054;-71
2024/03/28 04:28:20;;;;;;;1187.65;999.90;;;;;;;20.43;38.78;98548.03;5127374;27;20062;-70
2024/03/28 04:30:46;;;;;;;1215.40;999.90;;;;;;;20.36;38.92;98539.44;5123351;27;20045;-70
2024/03/28 04:33:11;;;;;;;1225.63;999.90;;;;;;;20.42;38.86;98551.72;5120025;27;20050;-71
2024/03/28 04:35:37;;;;;;;1230.95;999.90;;;;;;;20.38;38.60;98556.66;5125193;27;20041;-72
2024/03/28 04:38:03;;;;;;;1224.38;999.90;;;;;;;20.41;38.71;98556.22;5088122;27;20050;-71
2024/03/28 04:40:29;;;;;;;1205.50;999.90;;;;;;;20.35;38.84;98559.78;5126762;27;20049;-71
2024/03/28 04:42:55;;;;;;;1157.28;999.90;;;;;;;20.35;38.83;98564.25;5120635;27;20127;-70
2024/03/28 04:45:20;;;;;;;1233.70;999.90;;;;;;;20.32;38.69;98565.53;5119389;27;20042;-70
2024/03/28 04:47:47;;;;;;;1297.40;999.90;;;;;;;20.36;38.83;98568.50;5123269;27;20627;-70
2024/03/28 04:50:14;;;;;;;1193.00;999.90;;;;;;;20.34;38.79;98558.19;5120003;27;20043;-70
2024/03/28 04:52:39;;;;;;;1145.18;999.90;;;;;;;20.33;38.75;98563.72;5121355;27;20035;-70
2024/03/28 04:55:06;;;;;;;1147.03;999.90;;;;;;;20.28;38.83;98560.94;5116519;27;20058;-70
2024/03/28 04:57:32;;;;;;;1044.28;906.90;;;;;;;20.24;38.84;98557.97;5097190;27;20066;-71
2024/03/28 04:59:57;;;;;;;971.10;674.00;;;;;;;20.22;38.82;98552.94;5123931;27;20718;-71
2024/03/28 05:02:23;;;;;;;876.40;619.67;;;;;;;20.32;38.65;98554.19;5119959;27;20031;-70
2024/03/28 05:04:48;;;;;;;1107.93;984.28;;;;;;;20.27;38.82;98554.06;5103309;27;20046;-70
2024/03/28 05:07:15;;;;;;;1165.00;999.90;;;;;;;20.29;38.78;98557.25;5118123;27;20486;-71
2024/03/28 05:09:44;;;;;;;1168.00;999.90;;;;;;;20.31;38.83;98558.66;5116538;27;20070;-71
2024/03/28 05:12:10;;;;;;;1165.93;999.90;;;;;;;20.33;38.64;98548.66;5104506;27;20359;-71
2024/03/28 05:14:35;;;;;;;1156.75;999.90;;;;;;;20.29;38.73;98552.81;5119450;27;20058;-70
2024/03/28 05:17:01;;;;;;;1147.00;999.90;;;;;;;20.32;38.64;98549.69;5118892;27;20027;-70
2024/03/28 05:19:26;;;;;;;1162.07;999.90;;;;;;;20.25;38.54;98549.00;5122644;27;20070;-70
2024/03/28 05:21:52;;;;;;;1168.20;999.90;;;;;;;20.27;38.87;98546.94;5116405;27;20163;-72
2024/03/28 05:24:17;;;;;;;1166.80;999.90;;;;;;;20.25;38.68;98546.38;5119763;27;20154;-70
2024/03/28 05:26:42;;;;;;;1168.53;999.90;;;;;;;20.21;38.71;98538.13;5103561;28;20371;-70
2024/03/28 05:29:08;;;;;;;1167.85;999.90;;;;;;;20.27;38.64;98530.28;5116844;27;20055;-69
2024/03/28 05:31:33;;;;;;;1158.43;999.90;;;;;;;20.18;38.86;98511.38;5123918;27;20054;-70
2024/03/28 05:33:59;;;;;;;1172.95;999.90;;;;;;;20.22;39.02;98494.78;5118634;27;20094;-71
2024/03/28 05:36:24;;;;;;;1202.90;999.90;;;;;;;20.27;38.66;98490.63;5100582;27;20031;-70
2024/03/28 05:38:51;;;;;;;1177.85;999.90;;;;;;;20.27;38.49;98488.78;5120653;27;20143;-70
2024/03/28 05:41:16;;;;;;;1172.20;999.90;;;;;;;20.36;38.69;98502.44;5091324;27;20675;-71
2024/03/28 05:43:43;;;;;;;1189.88;972.58;;;;;;;20.39;38.57;98504.59;5120348;27;20126;-70
2024/03/28 05:46:09;;;;;;;1110.53;915.20;;;;;;;20.63;38.09;98498.13;5122298;27;20050;-71
2024/03/28 05:48:34;;;;;;;1047.63;790.33;;;;;;;20.71;37.99;98496.94;5123532;27;20383;-71
2024/03/28 05:50:59;;;;;;;1098.95;910.10;;;;;;;20.72;38.22;98486.13;5120523;27;20048;-71
2024/03/28 05:53:25;;;;;;;1105.65;926.30;;;;;;;20.74;38.08;98480.59;5118531;27;20050;-72
2024/03/28 05:55:51;;;;;;;1105.53;886.03;;;;;;;20.74;38.05;98470.81;5120611;27;20590;-70
2024/03/28 05:58:16;;;;;;;1127.03;886.45;;;;;;;20.75;38.20;98459.19;5119946;27;20709;-72
2024/03/28 06:00:42;;;;;;;1129.55;908.10;;;;;;;20.75;38.28;98443.31;5124714;27;20039;-72
2024/03/28 06:03:07;;;;;;;1110.95;867.03;;;;;;;20.68;38.14;98442.69;5123782;27;20419;-70
2024/03/28 06:05:33;;;;;;;1159.63;946.13;;;;;;;20.71;38.30;98441.41;5121221;27;20038;-70
2024/03/28 06:07:59;;;;;;;1165.05;964.47;;;;;;;20.68;38.63;98448.00;5121206;27;20035;-71
2024/03/28 06:10:25;;;;;;;1164.10;954.47;;;;;;;20.64;38.52;98444.22;5119250;27;20039;-70
2024/03/28 06:12:51;;;;;;;1178.63;958.30;;;;;;;20.63;38.35;98442.59;5103068;27;20050;-71
2024/03/28 06:15:16;;;;;;;1181.50;958.97;;;;;;;20.65;38.42;98426.53;5130193;27;20022;-70
2024/03/28 06:17:42;;;;;;;1177.10;999.63;;;;;;;20.66;38.49;98421.00;5125458;27;20038;-70
2024/03/28 06:20:08;;;;;;;1161.28;974.83;;;;;;;20.62;38.45;98432.28;5123113;27;20126;-71
2024/03/28 06:22:33;;;;;;;1162.82;962.85;;;;;;;20.61;38.58;98426.19;5131067;27;20091;-71
2024/03/28 06:24:59;;;;;;;1187.10;999.90;;;;;;;20.56;38.73;98420.03;5107850;27;20038;-70
2024/03/28 06:27:25;;;;;;;1199.15;999.90;;;;;;;20.60;38.45;98437.00;5124704;27;20074;-71
2024/03/28 06:29:51;;;;;;;1200.60;999.90;;;;;;;20.58;38.61;98449.66;5127589;27;20035;-71
2024/03/28 06:32:29;;;;;;;1196.40;999.90;;;;;;;20.58;38.76;98452.31;5132057;27;20095;-71
2024/03/28 06:34:56;;;;;;;1179.72;999.90;;;;;;;20.57;38.76;98454.16;5128266;27;20604;-72
2024/03/28 06:37:23;;;;;;;1186.72;999.90;;;;;;;20.57;38.67;98454.16;5130953;27;20046;-71
2024/03/28 06:39:49;;;;;;;1186.43;999.90;;;;;;;20.59;38.61;98441.50;5128159;27;20083;-71
2024/03/28 06:42:17;;;;;;;1191.40;999.90;;;;;;;20.52;38.57;98438.22;5126528;27;20074;-71
2024/03/28 06:44:52;;;;;;;1178.53;999.90;;;;;;;20.52;38.70;98446.16;5112043;27;20070;-71
2024/03/28 06:47:18;;;;;;;1183.78;999.90;;;;;;;20.51;38.66;98449.84;5137445;27;20037;-70
2024/03/28 06:49:43;;;;;;;1189.15;999.90;;;;;;;20.54;38.69;98451.19;5115181;27;20043;-70
2024/03/28 06:52:09;;;;;;;1173.97;999.90;;;;;;;20.48;38.86;98435.28;5134789;27;20034;-71
2024/03/28 06:54:35;;;;;;;1172.15;999.90;;;;;;;20.50;38.74;98430.53;5124897;27;20054;-71
2024/03/28 06:57:01;;;;;;;1167.68;999.90;;;;;;;20.50;38.85;98441.13;5128951;27;20060;-71
2024/03/28 06:59:26;;;;;;;1171.82;999.90;;;;;;;20.47;38.66;98436.31;5125051;27;20455;-71
2024/03/28 07:01:52;;;;;;;1173.82;999.90;;;;;;;20.50;38.61;98442.97;5130016;27;20130;-72
2024/03/28 07:04:17;;;;;;;1183.60;999.90;;;;;;;20.47;38.68;98441.59;5108957;27;20106;-71
2024/03/28 07:06:43;;;;;;;1172.68;999.90;;;;;;;20.45;38.74;98440.22;5130288;27;20719;-70
2024/03/28 07:09:09;;;;;;;1212.30;999.90;;;;;;;20.51;38.68;98436.63;5128238;27;20043;-70
2024/03/28 07:11:35;;;;;;;1213.47;999.90;;;;;;;20.45;38.48;98438.38;5127033;27;20536;-70
2024/03/28 07:14:02;;;;;;;1176.82;999.90;;;;;;;20.42;38.86;98433.56;5121922;27;20034;-70
2024/03/28 07:16:28;;;;;;;1182.43;999.90;;;;;;;20.44;38.60;98430.69;5123252;27;20039;-70
2024/03/28 07:18:55;;;;;;;1195.70;999.90;;;;;;;20.41;38.66;98424.03;5124259;27;20107;-69
2024/03/28 07:21:21;;;;;;;1201.45;999.90;;;;;;;20.46;38.77;98426.75;5129049;27;20039;-71
2024/03/28 07:23:47;;;;;;;1213.85;999.90;;;;;;;20.44;38.78;98415.63;5123047;27;20035;-71
2024/03/28 07:26:14;;;;;;;1196.60;999.90;;;;;;;20.37;38.91;98417.59;5124113;27;20053;-72
2024/03/28 07:28:40;;;;;;;1206.00;999.90;;;;;;;20.44;38.75;98409.53;5124404;27;20363;-72
2024/03/28 07:31:05;;;;;;;1196.38;999.90;;;;;;;20.42;38.88;98416.91;5118611;27;20126;-71
2024/03/28 07:33:31;;;;;;;1181.60;999.90;;;;;;;20.37;38.83;98412.31;5124583;27;21813;-72
2024/03/28 07:35:56;;;;;;;1176.97;999.90;;;;;;;20.46;38.74;98421.47;5107783;27;20379;-70
2024/03/28 07:38:22;;;;;;;1190.35;999.90;;;;;;;20.49;38.59;98413.06;5127139;27;20710;-71
2024/03/28 07:40:49;;;;;;;1220.43;999.90;;;;;;;20.57;38.54;98416.34;5119646;27;20640;-71
2024/03/28 07:43:15;;;;;;;1233.32;999.90;;;;;;;20.51;38.54;98418.91;5125157;27;20469;-71
2024/03/28 07:45:42;;;;;;;1249.13;999.90;;;;;;;20.68;38.20;98418.09;5128030;27;20046;-71
2024/03/28 07:48:10;;;;;;;1198.75;999.90;;;;;;;20.92;37.79;98408.91;5124045;27;20405;-70
2024/03/28 07:50:39;;;;;;;1191.93;999.90;;;;;;;21.27;37.56;98397.97;5120967;27;20057;-70
2024/03/28 07:53:05;;;;;;;1185.10;999.90;;;;;;;21.52;37.20;98394.81;5125865;27;20593;-71
2024/03/28 07:55:31;;;;;;;1199.45;999.90;;;;;;;21.64;36.76;98392.03;5121636;27;20481;-70
2024/03/28 07:57:56;;;;;;;1224.82;997.25;;;;;;;21.68;36.88;98401.06;5123754;27;20042;-72
2024/03/28 08:00:22;;;;;;;1097.65;828.53;;;;;;;21.63;37.05;98390.44;5121173;27;20621;-70
2024/03/28 08:02:48;;;;;;;1058.90;794.40;;;;;;;21.59;36.91;98381.38;5121899;27;20096;-72
2024/03/28 08:05:16;;;;;;;1107.10;874.40;;;;;;;21.52;36.99;98389.50;5123970;27;20039;-72
2024/03/28 08:07:41;;;;;;;1096.28;858.97;;;;;;;21.52;37.20;98386.84;5123784;27;20038;-73
2024/03/28 08:10:09;;;;;;;1060.93;804.65;;;;;;;21.50;37.29;98380.22;5125395;27;20030;-74
2024/03/28 08:12:39;;;;;;;1154.60;886.28;;;;;;;21.47;37.62;98388.66;5122657;27;20099;-73
2024/03/28 08:15:09;;;;;;;1212.65;996.60;;;;;;;21.41;37.49;98385.97;5125745;27;20058;-73
2024/03/28 08:17:37;;;;;;;967.97;639.70;;;;;;;21.32;37.91;98368.13;5118257;27;20216;-73
2024/03/28 08:20:15;;;;;;;1105.90;816.80;;;;;;;21.28;38.05;98377.59;5123401;27;20452;-73
2024/03/28 08:22:41;;;;;;;1136.93;859.50;;;;;;;21.19;38.34;98368.50;5117096;27;20063;-72
2024/03/28 08:25:08;;;;;;;1194.75;926.42;;;;;;;21.24;38.50;98366.72;5104475;27;20095;-72
2024/03/28 08:27:36;;;;;;;1258.82;999.90;;;;;;;21.21;38.22;98361.09;5121993;27;20234;-73
2024/03/28 08:30:02;;;;;;;1249.90;999.90;;;;;;;21.23;38.18;98365.09;5127541;27;20042;-73
2024/03/28 08:32:28;;;;;;;1227.45;999.90;;;;;;;21.17;38.80;98359.97;5119700;27;20067;-72
2024/03/28 08:34:53;;;;;;;1170.10;999.90;;;;;;;21.17;38.60;98363.41;5121844;27;20057;-74
2024/03/28 08:37:19;;;;;;;1186.97;999.90;;;;;;;21.13;38.58;98351.75;5121729;27;20114;-75
2024/03/28 08:39:45;;;;;;;1278.10;951.60;;;;;;;21.20;38.75;98348.91;5119179;27;20110;-74
2024/03/28 08:42:10;;;;;;;1284.75;999.90;;;;;;;21.18;38.56;98343.84;5121404;27;20050;-74
2024/03/28 08:44:37;;;;;;;1277.38;999.90;;;;;;;21.22;38.47;98338.88;5117820;27;20450;-75
2024/03/28 08:47:03;;;;;;;1253.07;999.90;;;;;;;21.18;38.41;98340.41;5106882;27;20046;-74
2024/03/28 08:49:28;;;;;;;1262.25;999.90;;;;;;;21.17;38.63;98336.94;5119571;27;20049;-75
2024/03/28 08:51:54;;;;;;;1258.13;999.90;;;;;;;21.16;38.75;98329.25;5118471;27;20043;-75
2024/03/28 08:54:22;;;;;;;1256.65;999.90;;;;;;;21.12;38.62;98329.75;5120767;27;20618;-74
2024/03/28 08:56:48;;;;;;;1245.50;999.90;;;;;;;21.10;38.47;98333.72;5115593;27;20043;-75
2024/03/28 08:59:17;;;;;;;1225.70;999.90;;;;;;;21.11;38.34;98343.25;5118531;27;20637;-75
2024/03/28 09:01:42;;;;;;;1202.75;999.90;;;;;;;21.12;38.53;98343.00;5121093;27;20099;-74
2024/03/28 09:04:08;;;;;;;1208.82;999.90;;;;;;;21.05;38.75;98338.97;5102705;27;21053;-74
2024/03/28 09:06:33;;;;;;;1212.88;999.90;;;;;;;21.10;38.80;98376.06;5105038;27;20118;-74
2024/03/28 09:09:00;;;;;;;1239.20;999.90;;;;;;;21.08;38.58;98368.38;5118533;27;20130;-73
2024/03/28 09:11:27;;;;;;;1231.00;999.90;;;;;;;21.09;38.65;98350.63;5122026;27;20042;-73
2024/03/28 09:13:53;;;;;;;1208.18;999.90;;;;;;;21.03;38.83;98359.56;5123938;27;20490;-74
2024/03/28 09:16:18;;;;;;;1209.60;999.90;;;;;;;21.07;38.64;98363.31;5118568;27;20047;-75
2024/03/28 09:18:44;;;;;;;1218.65;999.90;;;;;;;20.98;38.85;98360.28;5119183;27;20042;-74
2024/03/28 09:21:11;;;;;;;1216.72;999.90;;;;;;;21.01;38.79;98353.72;5118866;27;20099;-74
2024/03/28 09:23:38;;;;;;;1220.30;999.90;;;;;;;20.98;38.92;98347.06;5118304;27;20076;-73
2024/03/28 09:26:03;;;;;;;1226.07;999.90;;;;;;;20.98;38.88;98340.97;5119272;27;20051;-74
2024/03/28 09:28:30;;;;;;;1226.05;999.90;;;;;;;20.99;38.99;98334.63;5118930;27;20023;-74
2024/03/28 09:30:55;;;;;;;1205.57;999.90;;;;;;;20.97;38.82;98340.16;5116390;27;20038;-74
2024/03/28 09:33:21;;;;;;;1180.25;999.90;;;;;;;21.03;38.79;98351.63;5116129;27;20035;-74
2024/03/28 09:35:47;;;;;;;1156.07;999.90;;;;;;;21.13;38.66;98338.50;5126853;27;20134;-74
2024/03/28 09:38:12;;;;;;;1166.32;999.90;;;;;;;21.45;38.20;98341.25;5117397;27;20364;-73
2024/03/28 09:40:51;;;;;;;1179.18;999.90;;;;;;;21.59;37.63;98342.47;5119950;27;20034;-74
2024/03/28 09:43:18;;;;;;;1177.65;996.63;;;;;;;21.49;37.91;98315.88;5122753;27;20107;-74
2024/03/28 09:45:44;;;;;;;1146.10;839.63;;;;;;;21.62;37.61;98325.25;5123037;27;20039;-74
2024/03/28 09:48:14;;;;;;;1212.10;962.85;;;;;;;21.53;37.74;98324.91;5122659;27;20084;-74
2024/03/28 09:50:44;;;;;;;1221.25;999.90;;;;;;;21.49;38.13;98333.59;5119025;27;20035;-74
2024/03/28 09:53:10;;;;;;;1193.43;974.47;;;;;;;21.46;38.10;98324.31;5123390;27;20039;-74
2024/03/28 09:55:39;;;;;;;1182.88;954.30;;;;;;;21.49;38.06;98330.97;5123020;27;20490;-74
2024/03/28 09:58:04;;;;;;;1238.68;999.90;;;;;;;21.37;37.96;98318.69;5120765;27;20051;-74
2024/03/28 10:00:31;;;;;;;1180.40;999.90;;;;;;;21.40;38.47;98320.84;5109301;27;20517;-73
2024/03/28 10:03:14;;;;;;;1175.28;999.90;;;;;;;21.38;38.05;98325.59;5120439;27;20160;-74
2024/03/28 10:05:40;;;;;;;1175.78;999.90;;;;;;;21.41;38.22;98325.06;5121197;27;20055;-74
2024/03/28 10:08:05;;;;;;;1187.72;999.90;;;;;;;21.36;38.40;98322.38;5099725;27;20035;-73
2024/03/28 10:10:32;;;;;;;1202.18;999.90;;;;;;;21.39;38.28;98332.47;5118394;27;20031;-73
2024/03/28 10:13:04;;;;;;;1263.85;999.90;;;;;;;21.35;38.26;98322.63;5123571;27;20031;-73
2024/03/28 10:15:32;;;;;;;1269.03;982.13;;;;;;;21.37;37.92;98324.00;5124783;27;20479;-74
2024/03/28 10:17:59;;;;;;;1243.20;999.90;;;;;;;21.30;37.82;98330.50;5118379;27;20223;-73
2024/03/28 10:20:24;;;;;;;1256.07;999.90;;;;;;;21.26;38.01;98332.06;5118330;27;20524;-74
2024/03/28 10:22:52;;;;;;;1189.10;910.83;;;;;;;21.32;37.60;98337.16;5122248;27;20043;-74
2024/03/28 10:25:25;;;;;;;1207.10;771.35;;;;;;;21.26;37.59;98337.34;5120554;27;20035;-73
2024/03/28 10:27:56;;;;;;;1194.82;778.58;;;;;;;21.23;37.65;98335.19;5123968;27;20058;-74
2024/03/28 10:30:24;;;;;;;1276.97;909.58;;;;;;;21.17;37.76;98322.91;5122086;27;20121;-73
2024/03/28 10:32:58;;;;;;;1291.80;918.55;;;;;;;21.15;37.69;98323.16;5122491;27;20044;-73
2024/03/28 10:35:25;;;;;;;1303.07;924.85;;;;;;;21.16;38.00;98319.47;5124675;27;20050;-74
2024/03/28 10:38:04;;;;;;;1318.93;964.42;;;;;;;21.17;38.01;98325.56;5121866;27;20041;-73
2024/03/28 10:40:32;;;;;;;1282.53;886.30;;;;;;;21.13;38.84;98320.78;5120900;27;20039;-70
2024/03/28 10:43:01;;;;;;;1305.32;929.03;;;;;;;21.29;38.61;98326.28;5120726;27;20057;-70
2024/03/28 10:45:30;;;;;;;1181.75;783.85;;;;;;;21.34;38.27;98327.09;5119963;27;20042;-70
2024/03/28 10:47:57;;;;;;;1328.18;936.45;;;;;;;21.35;38.43;98328.72;5117150;27;20096;-69
2024/03/28 10:50:32;;;;;;;1350.95;999.90;;;;;;;21.50;38.05;98330.72;5124780;27;20081;-72
2024/03/28 10:53:03;;;;;;;1260.55;999.90;;;;;;;21.27;38.88;98331.81;5118322;27;20047;-71
2024/03/28 10:55:35;;;;;;;1164.63;999.72;;;;;;;21.34;39.11;98324.47;5119943;27;20071;-71
2024/03/28 10:58:03;;;;;;;1316.50;984.47;;;;;;;21.33;38.69;98325.50;5108158;27;20041;-71